Aeroporto :
LOGIN :

Iscrizione | Disclaimer

   EN    FR    IT 

 










Sommario :    VFR   VFR Marginale   IFR   IFR Intensivo   IFR Molto Intensivo
Visibilità : 
Base nubi : 
>= 8 km
>= 3000ft
5 / 8 km
1000 / 3000 ft
1500m / 5 km
500 / 1000 ft
800 / 1500m
200 / 500 ft
< 800m
< 200 ft
Simboli :   Temporali  Nebbia  Neve Forte  Precipitazioni Forti  Vento > 20 kt
SIGMETs :   Varie  Temporali  Ghiacco  Turbolenza  Onda orograficha  Ceneri Vulcaniche






- Altitudine del aeroporto : 190 ft


LBPG - Graf Ignatievo Air Base

ULTIMO METAR :
  • 211900Z 06004KT 9999 FEW100 M02/M06 Q1036

METARs OBSOLETI :
  • 211800Z 09004KT 9999 SCT100 M01/M06 Q1036
  • 211700Z 15004KT 9999 SCT100 01/M05 Q1036

TAF TAF LBPG
Valido dal 21 a 18 ore il 22 a 06 ore UTC


211700Z 2118/2206 08006KT 9999 BKN200
BECMG 2120/2122 29004KT SKC BY LBSA



MetMap, La meteo Aeronautica in un colpo d'occhio ! - Copyright ORBIFLY Dicembre 2007 - Disclaimer

ORBIFLY MET'MAP TEAM :

Programmazione e sviluppo : Alexandra Zaïnal
Concezione : Baudouin d'Aumeries
Aiuto per la programmazione : Marc-Olivier Méhu
Supporto tecnico e logistico : Manuel Goepfert
Aiuto per la traduzione : Arnaldo La Scala

Contatto : metmap@orbifly.com




FONTI E CREDITI :

   NOAA